Time;durP1;ratioP1;P1;durP2;ratioP2;P2;SDS_P1;SDS_P2;PMS_P1;PMS_P2;Temp;Humidity;BMP_temperature;BMP_pressure;BME280_temperature;BME280_humidity;BME280_pressure;Samples;Min_cycle;Max_cycle;Signal;HPM_P1;HPM_P2
2022/05/17 00:00:00;;;;;;;9.25;4.38;;;19.30;59.80;;;13.56;89.21;101788.69;173361;28;947;-68
2022/05/17 00:00:11;;;;;;;9.43;4.32;;;19.30;59.70;;;13.55;89.49;101785.22;173408;28;1002;-68
2022/05/17 00:00:17;;;;;;;9.14;4.36;;;19.30;59.70;;;13.56;89.39;101791.31;173376;28;1215;-68
2022/05/17 00:00:23;;;;;;;9.57;4.40;;;19.30;59.70;;;13.55;89.41;101787.84;173391;28;982;-68
2022/05/17 00:00:29;;;;;;;9.20;4.30;;;19.30;59.80;;;13.56;89.66;101786.94;173286;28;1164;-68
2022/05/17 00:00:35;;;;;;;9.20;4.22;;;19.30;59.70;;;13.56;89.08;101792.19;173341;28;1001;-67
2022/05/17 00:00:41;;;;;;;8.90;4.30;;;19.30;59.70;;;13.56;88.99;101786.09;173363;28;887;-67
2022/05/17 00:00:47;;;;;;;8.70;4.25;;;19.30;59.70;;;13.56;89.25;101786.94;173333;28;989;-67
2022/05/17 00:00:53;;;;;;;9.00;4.20;;;19.30;59.70;;;13.56;89.14;101792.19;173346;28;879;-67
2022/05/17 00:01:00;;;;;;;9.18;4.30;;;19.30;59.80;;;13.56;89.40;101786.94;173331;28;923;-67
2022/05/17 00:01:06;;;;;;;10.40;4.50;;;19.30;59.80;;;13.55;89.65;101790.47;173358;28;947;-68
2022/05/17 00:01:13;;;;;;;11.23;4.60;;;19.30;59.70;;;13.55;89.67;101787.00;173324;28;1097;-68
2022/05/17 00:01:19;;;;;;;11.80;4.63;;;19.30;59.80;;;13.55;89.30;101785.22;173334;28;2055;-68
2022/05/17 00:01:25;;;;;;;11.60;4.70;;;19.30;59.80;;;13.55;89.59;101790.47;173347;28;899;-68
2022/05/17 00:01:31;;;;;;;11.25;4.68;;;19.30;59.80;;;13.55;89.49;101787.84;173350;28;1045;-67
2022/05/17 00:01:37;;;;;;;10.25;4.60;;;19.30;59.80;;;13.56;89.26;101786.09;173377;28;1196;-68
2022/05/17 00:01:43;;;;;;;10.90;4.60;;;19.30;59.80;;;13.55;89.73;101787.84;173376;28;1021;-68
2022/05/17 00:01:49;;;;;;;11.17;4.60;;;19.30;59.80;;;13.56;89.44;101786.09;173373;28;911;-68
2022/05/17 00:01:55;;;;;;;11.90;4.80;;;19.30;59.80;;;13.56;89.56;101792.19;173352;28;915;-68
2022/05/17 00:02:00;;;;;;;11.70;4.75;;;19.30;59.80;;;13.56;89.14;101791.31;173305;28;1186;-67
2022/05/17 00:02:07;;;;;;;11.25;4.68;;;19.30;59.80;;;13.56;89.43;101789.56;173339;28;930;-67
2022/05/17 00:02:13;;;;;;;11.10;4.68;;;19.30;59.80;;;13.56;89.53;101786.94;173346;28;1168;-67
2022/05/17 00:02:19;;;;;;;10.73;4.57;;;19.30;59.80;;;13.56;89.49;101784.31;173365;28;895;-68
2022/05/17 00:02:25;;;;;;;11.23;4.40;;;19.30;59.90;;;13.56;89.47;101786.09;173338;28;1031;-67
2022/05/17 00:02:30;;;;;;;11.70;4.50;;;19.30;59.80;;;13.56;89.78;101786.94;173431;28;998;-68
2022/05/17 00:02:36;;;;;;;12.02;4.45;;;19.30;59.80;;;13.56;89.33;101784.31;173440;28;930;-68
2022/05/17 00:02:42;;;;;;;11.02;4.32;;;19.30;59.80;;;13.56;89.40;101789.56;173392;28;942;-67
2022/05/17 00:02:47;;;;;;;10.43;4.30;;;19.30;59.80;;;13.55;89.28;101785.22;173362;28;1321;-68
2022/05/17 00:02:53;;;;;;;9.98;4.32;;;19.30;59.90;;;13.55;89.54;101784.38;173414;28;863;-68
2022/05/17 00:02:59;;;;;;;9.38;4.30;;;19.30;59.80;;;13.54;89.69;101791.38;173368;28;955;-68
2022/05/17 00:03:05;;;;;;;9.07;4.27;;;19.30;59.90;;;13.54;89.38;101791.38;173411;28;860;-68
2022/05/17 00:03:11;;;;;;;10.15;4.38;;;19.30;59.90;;;13.53;89.28;101792.31;173392;28;1062;-68
2022/05/17 00:03:18;;;;;;;12.13;4.43;;;19.30;59.90;;;13.54;89.58;101793.16;173385;28;1089;-67
2022/05/17 00:03:24;;;;;;;12.52;4.45;;;19.30;59.90;;;13.52;89.58;101790.59;173386;28;1102;-68
2022/05/17 00:03:30;;;;;;;12.24;4.46;;;19.30;59.90;;;13.52;89.82;101790.59;173384;28;1101;-67
2022/05/17 00:03:36;;;;;;;11.77;4.40;;;19.30;59.90;;;13.52;89.33;101790.59;173368;28;1057;-67
2022/05/17 00:03:44;;;;;;;11.00;4.35;;;19.30;59.90;;;13.51;89.55;101789.75;173316;28;855;-67
2022/05/17 00:03:50;;;;;;;9.78;4.30;;;19.30;59.90;;;13.53;89.34;101792.31;173329;28;931;-67
2022/05/17 00:03:56;;;;;;;8.88;4.30;;;19.30;59.90;;;13.52;89.97;101791.44;173375;28;1094;-67
2022/05/17 00:04:01;;;;;;;8.40;4.30;;;19.30;59.90;;;13.52;89.24;101788.81;173346;28;1209;-68
2022/05/17 00:04:07;;;;;;;8.95;4.43;;;19.30;59.90;;;13.52;89.74;101787.97;173327;28;930;-68
2022/05/17 00:04:14;;;;;;;8.48;4.45;;;19.20;59.90;;;13.53;89.35;101787.06;173318;28;1105;-67
2022/05/17 00:04:20;;;;;;;9.23;4.57;;;19.30;59.90;;;13.54;89.66;101794.00;173338;28;1272;-67
2022/05/17 00:04:26;;;;;;;10.04;4.66;;;19.30;59.90;;;13.53;89.83;101797.56;173219;28;1455;-67
2022/05/17 00:04:33;;;;;;;12.00;4.70;;;19.20;59.90;;;13.53;89.62;101792.31;173337;28;934;-68
2022/05/17 00:04:39;;;;;;;12.03;4.67;;;19.30;59.90;;;13.52;89.76;101795.84;173418;28;903;-67
2022/05/17 00:04:45;;;;;;;12.63;4.70;;;19.30;59.90;;;13.52;89.95;101801.09;173367;28;1002;-67
2022/05/17 00:04:51;;;;;;;12.10;4.60;;;19.30;59.90;;;13.51;89.33;101795.00;173362;28;1022;-68
2022/05/17 00:04:57;;;;;;;12.38;4.52;;;19.20;59.90;;;13.51;89.89;101799.38;173371;28;904;-68
2022/05/17 00:05:04;;;;;;;11.33;4.43;;;19.30;60.00;;;13.51;89.58;101794.13;173351;28;887;-68
2022/05/17 00:05:10;;;;;;;11.06;4.42;;;19.30;60.00;;;13.51;89.92;101802.00;172635;28;1147;-67
2022/05/17 00:05:16;;;;;;;10.80;4.36;;;19.30;60.00;;;13.52;89.42;101795.84;172659;28;931;-67
2022/05/17 00:05:22;;;;;;;10.07;4.35;;;19.30;59.90;;;13.51;89.74;101787.13;172659;28;1062;-68
2022/05/17 00:05:28;;;;;;;9.35;4.28;;;19.30;60.00;;;13.52;89.75;101790.59;173261;28;1107;-67
2022/05/17 00:05:35;;;;;;;9.87;4.43;;;19.30;59.90;;;13.52;89.79;101794.06;173795;28;959;-67
2022/05/17 00:05:46;;;;;;;10.95;4.63;;;19.30;60.00;;;13.52;89.83;101795.84;174046;28;1172;-67
2022/05/17 00:05:51;;;;;;;10.99;4.62;;;19.30;59.90;;;13.52;89.79;101793.22;174000;28;1223;-67
2022/05/17 00:05:57;;;;;;;10.57;4.70;;;19.30;60.00;;;13.53;89.65;101802.78;174043;28;1292;-67
2022/05/17 00:06:05;;;;;;;9.90;4.65;;;19.30;60.00;;;13.53;90.02;101802.78;174041;28;907;-67
2022/05/17 00:06:11;;;;;;;7.97;4.37;;;19.30;60.00;;;13.53;90.11;101797.56;174011;28;974;-67
2022/05/17 00:06:17;;;;;;;7.55;4.38;;;19.20;60.00;;;13.54;89.94;101798.41;174039;28;887;-67
2022/05/17 00:06:26;;;;;;;7.62;4.44;;;19.30;60.10;;;13.53;89.73;101797.56;174012;28;1001;-67
2022/05/17 00:06:32;;;;;;;7.90;4.40;;;19.30;60.10;;;13.54;89.79;101793.16;174030;28;986;-67
2022/05/17 00:06:38;;;;;;;8.27;4.43;;;19.20;60.10;;;13.53;90.02;101797.56;174074;28;943;-67
2022/05/17 00:06:44;;;;;;;8.52;4.47;;;19.20;60.10;;;13.54;90.19;101793.16;174025;28;973;-67
2022/05/17 00:06:50;;;;;;;8.70;4.57;;;19.30;60.10;;;13.53;89.86;101797.56;174048;28;941;-67
2022/05/17 00:06:56;;;;;;;8.43;4.50;;;19.30;60.10;;;13.53;89.86;101794.94;174007;28;1061;-67
2022/05/17 00:07:05;;;;;;;9.07;4.50;;;19.20;60.10;;;13.53;89.61;101794.94;173227;28;978;-67
2022/05/17 00:07:11;;;;;;;11.00;4.50;;;19.20;60.00;;;13.52;89.75;101801.09;174012;28;1365;-67
2022/05/17 00:07:18;;;;;;;11.20;4.37;;;19.30;60.00;;;13.52;89.60;101795.84;174046;28;883;-67
2022/05/17 00:07:24;;;;;;;12.12;4.40;;;19.30;60.00;;;13.52;89.75;101791.44;174036;28;1167;-67
2022/05/17 00:07:30;;;;;;;11.68;4.40;;;19.20;60.00;;;13.52;89.74;101795.84;173351;28;1112;-67
2022/05/17 00:07:36;;;;;;;11.37;4.60;;;19.30;59.90;;;13.52;89.74;101793.22;173342;28;1024;-67
2022/05/17 00:07:42;;;;;;;10.68;4.56;;;19.20;59.90;;;13.52;89.58;101795.84;173325;28;918;-67
2022/05/17 00:07:48;;;;;;;10.93;4.45;;;19.30;59.90;;;13.51;89.40;101789.75;173329;28;1084;-67
2022/05/17 00:07:55;;;;;;;12.40;4.38;;;19.30;59.90;;;13.51;89.27;101799.38;173382;28;942;-67
2022/05/17 00:08:01;;;;;;;13.07;4.30;;;19.30;59.90;;;13.52;89.10;101795.84;173334;28;1006;-67
2022/05/17 00:08:07;;;;;;;12.23;4.17;;;19.20;59.80;;;13.51;89.06;101788.88;173397;28;954;-67
2022/05/17 00:08:16;;;;;;;11.65;4.10;;;19.20;59.80;;;13.50;89.14;101795.91;173332;28;1088;-67
2022/05/17 00:08:22;;;;;;;10.39;4.21;;;19.20;59.80;;;13.49;89.20;101796.81;173273;28;1055;-67
2022/05/17 00:08:28;;;;;;;9.02;4.28;;;19.20;59.80;;;13.49;89.51;101796.81;173352;28;1092;-67
2022/05/17 00:08:34;;;;;;;10.07;4.30;;;19.20;59.80;;;13.49;89.30;101788.94;173331;28;918;-67
2022/05/17 00:08:41;;;;;;;11.00;4.40;;;19.20;59.70;;;13.50;89.15;101789.81;173421;28;970;-67
2022/05/17 00:08:47;;;;;;;10.56;4.46;;;19.30;59.70;;;13.50;89.57;101802.91;173344;28;973;-67
2022/05/17 00:08:53;;;;;;;10.50;4.33;;;19.20;59.70;;;13.49;89.35;101790.72;173369;28;1037;-68
2022/05/17 00:08:59;;;;;;;10.82;4.43;;;19.20;59.70;;;13.48;89.27;101789.84;173299;28;982;-67
2022/05/17 00:09:06;;;;;;;10.40;4.50;;;19.20;59.70;;;13.48;89.29;101789.00;173431;28;966;-67
2022/05/17 00:09:12;;;;;;;10.07;4.33;;;19.20;59.80;;;13.49;89.56;101793.34;173431;28;871;-67
2022/05/17 00:09:18;;;;;;;10.30;4.30;;;19.20;59.80;;;13.50;89.35;101797.66;173376;28;966;-67
2022/05/17 00:09:23;;;;;;;10.05;4.50;;;19.20;59.80;;;13.50;89.37;101797.66;173392;28;836;-67
2022/05/17 00:09:29;;;;;;;9.23;4.43;;;19.20;59.80;;;13.50;89.71;101792.41;173431;28;926;-67
2022/05/17 00:09:35;;;;;;;9.70;4.47;;;19.30;59.80;;;13.50;89.22;101795.03;173428;28;982;-67
2022/05/17 00:09:41;;;;;;;8.93;4.53;;;19.20;59.90;;;13.50;89.53;101792.41;173409;28;1069;-67
2022/05/17 00:09:47;;;;;;;9.43;4.72;;;19.20;59.90;;;13.50;89.54;101795.03;173855;28;994;-67
2022/05/17 00:09:53;;;;;;;9.33;4.60;;;19.20;59.90;;;13.50;89.13;101792.41;173966;28;1525;-67
2022/05/17 00:09:59;;;;;;;9.52;4.50;;;19.20;59.80;;;13.50;89.34;101798.53;174036;28;856;-67
2022/05/17 00:10:06;;;;;;;9.15;4.43;;;19.20;59.80;;;13.50;89.48;101798.53;174046;28;1011;-67
2022/05/17 00:10:12;;;;;;;9.63;4.40;;;19.20;59.80;;;13.50;89.40;101798.53;174017;28;952;-68
2022/05/17 00:10:18;;;;;;;9.67;4.40;;;19.20;59.80;;;13.51;89.45;101794.13;174013;28;1197;-68
2022/05/17 00:10:26;;;;;;;9.38;4.32;;;19.20;59.80;;;13.50;89.54;101787.19;174020;28;1076;-68
2022/05/17 00:10:31;;;;;;;8.88;4.32;;;19.20;59.80;;;13.51;89.42;101799.38;173240;28;1185;-68
2022/05/17 00:10:39;;;;;;;8.33;4.37;;;19.20;59.80;;;13.50;89.01;101792.41;173392;28;1226;-68
2022/05/17 00:10:46;;;;;;;8.63;4.23;;;19.20;59.80;;;13.51;89.19;101795.00;173348;28;1043;-68
2022/05/17 00:10:53;;;;;;;9.50;4.34;;;19.20;59.80;;;13.50;89.41;101795.03;173313;28;1616;-68
2022/05/17 00:10:59;;;;;;;9.73;4.35;;;19.20;59.80;;;13.50;89.34;101793.28;173322;28;1397;-68
2022/05/17 00:11:06;;;;;;;9.57;4.32;;;19.20;59.70;;;13.50;89.14;101797.66;173364;28;899;-68
2022/05/17 00:11:13;;;;;;;8.70;4.30;;;19.20;59.80;;;13.51;89.31;101799.38;173352;28;927;-68
2022/05/17 00:11:19;;;;;;;7.96;4.30;;;19.20;59.80;;;13.50;89.11;101789.81;173305;28;941;-68
2022/05/17 00:11:26;;;;;;;6.80;4.20;;;19.20;59.80;;;13.49;89.39;101796.81;173329;28;867;-68
2022/05/17 00:11:32;;;;;;;7.00;4.26;;;19.20;59.80;;;13.50;89.33;101792.41;173333;28;1065;-68
2022/05/17 00:11:38;;;;;;;7.24;4.20;;;19.20;59.80;;;13.50;89.37;101800.28;173370;28;1116;-68
2022/05/17 00:11:46;;;;;;;7.47;4.23;;;19.20;59.80;;;13.51;89.07;101791.50;173189;28;974;-68
2022/05/17 00:11:52;;;;;;;7.57;4.20;;;19.20;59.80;;;13.50;89.40;101795.03;172672;28;947;-68
2022/05/17 00:11:59;;;;;;;8.43;4.30;;;19.20;59.90;;;13.49;89.52;101796.81;173235;28;1328;-68
2022/05/17 00:12:06;;;;;;;9.08;4.38;;;19.20;59.90;;;13.51;89.54;101799.38;173335;28;938;-68
2022/05/17 00:12:12;;;;;;;8.77;4.20;;;19.20;59.90;;;13.49;89.65;101796.81;173377;28;887;-68
2022/05/17 00:12:18;;;;;;;8.77;4.30;;;19.20;59.90;;;13.49;89.51;101791.56;173364;28;914;-68
2022/05/17 00:12:24;;;;;;;9.50;4.35;;;19.20;60.00;;;13.49;89.51;101791.56;173357;28;915;-68
2022/05/17 00:12:29;;;;;;;10.18;4.32;;;19.20;60.00;;;13.49;89.51;101795.97;172850;28;962;-68
2022/05/17 00:12:36;;;;;;;10.98;4.32;;;19.20;60.00;;;13.50;89.84;101797.66;173293;28;962;-68
2022/05/17 00:12:41;;;;;;;12.25;4.53;;;19.20;60.00;;;13.49;89.70;101793.34;173284;28;1089;-68
2022/05/17 00:12:49;;;;;;;12.82;4.50;;;19.20;60.10;;;13.49;89.60;101802.03;173378;28;915;-68
2022/05/17 00:12:55;;;;;;;12.46;4.52;;;19.20;60.10;;;13.50;89.66;101797.66;173329;28;1073;-68
2022/05/17 00:13:00;;;;;;;11.18;4.50;;;19.20;60.10;;;13.49;90.00;101790.72;173362;28;867;-68
2022/05/17 00:13:07;;;;;;;10.55;4.47;;;19.20;60.10;;;13.48;89.94;101789.84;173333;28;1046;-68
2022/05/17 00:13:14;;;;;;;8.90;4.30;;;19.20;60.10;;;13.49;89.51;101795.97;173357;28;1065;-68
2022/05/17 00:13:20;;;;;;;7.88;4.38;;;19.20;60.10;;;13.48;89.47;101795.09;173305;28;1094;-68
2022/05/17 00:13:26;;;;;;;7.47;4.37;;;19.20;60.00;;;13.49;89.69;101795.97;173335;28;1077;-68
2022/05/17 00:13:32;;;;;;;7.22;4.30;;;19.20;60.00;;;13.49;89.42;101793.34;173242;28;2550;-68
2022/05/17 00:13:38;;;;;;;6.80;4.30;;;19.20;60.00;;;13.47;89.32;101792.50;173379;28;918;-68
2022/05/17 00:13:44;;;;;;;7.22;4.20;;;19.20;60.00;;;13.48;89.71;101791.63;173812;28;970;-68
2022/05/17 00:13:50;;;;;;;7.10;4.10;;;19.20;60.00;;;13.48;89.87;101794.25;174052;28;1041;-68
2022/05/17 00:13:56;;;;;;;6.67;3.90;;;19.20;60.00;;;13.48;89.36;101794.25;172904;28;966;-68
2022/05/17 00:14:02;;;;;;;7.60;3.95;;;19.20;60.00;;;13.47;89.74;101792.50;172647;28;1151;-68
2022/05/17 00:14:08;;;;;;;9.30;4.10;;;19.20;60.00;;;13.47;89.61;101792.50;172718;28;982;-68
2022/05/17 00:14:16;;;;;;;9.30;4.10;;;19.20;60.00;;;13.47;89.17;101788.13;172650;28;1033;-68
2022/05/17 00:14:22;;;;;;;9.62;4.18;;;19.20;59.90;;;13.48;89.54;101794.25;172642;28;1247;-68
2022/05/17 00:14:28;;;;;;;9.80;4.30;;;19.20;59.90;;;13.47;89.39;101789.88;172609;28;950;-68
2022/05/17 00:14:35;;;;;;;9.14;4.14;;;19.20;59.90;;;13.47;89.21;101793.38;172598;28;1351;-68
2022/05/17 00:14:41;;;;;;;8.55;4.07;;;19.10;59.90;;;13.47;89.52;101797.75;172700;28;962;-68
2022/05/17 00:14:46;;;;;;;8.32;4.13;;;19.20;59.90;;;13.47;89.61;101792.50;172655;28;982;-68
2022/05/17 00:14:53;;;;;;;9.50;4.10;;;19.20;59.90;;;13.46;89.45;101788.19;172651;28;923;-68
2022/05/17 00:14:58;;;;;;;9.70;4.22;;;19.20;59.80;;;13.45;89.72;101794.34;172646;28;1076;-68
2022/05/17 00:15:06;;;;;;;9.30;4.30;;;19.20;59.80;;;13.46;89.26;101793.44;172677;28;856;-68
2022/05/17 00:15:12;;;;;;;8.93;4.28;;;19.10;59.90;;;13.45;89.20;101792.56;172642;28;962;-68
2022/05/17 00:15:18;;;;;;;9.48;4.28;;;19.20;59.90;;;13.46;89.89;101796.91;172640;28;844;-68
2022/05/17 00:15:25;;;;;;;9.47;4.43;;;19.20;59.90;;;13.46;89.82;101790.81;172666;28;1061;-68
2022/05/17 00:15:33;;;;;;;9.35;4.40;;;19.20;60.00;;;13.46;89.39;101796.06;172990;28;958;-68
2022/05/17 00:15:48;;;;;;;9.81;4.47;;;19.20;60.00;;;13.45;89.59;101789.09;172614;28;1350;-68
2022/05/17 00:15:54;;;;;;;8.94;4.60;;;19.20;60.00;;;13.46;89.88;101790.81;172623;28;1205;-68
2022/05/17 00:16:01;;;;;;;8.52;4.70;;;19.10;60.00;;;13.44;89.49;101798.72;172630;28;1034;-68
2022/05/17 00:16:07;;;;;;;8.87;4.70;;;19.20;60.10;;;13.43;89.60;101791.78;172685;28;1277;-68
2022/05/17 00:16:13;;;;;;;9.82;4.80;;;19.20;60.10;;;13.42;89.88;101783.97;172671;28;1120;-68
2022/05/17 00:16:19;;;;;;;11.35;4.90;;;19.10;60.10;;;13.42;89.86;101795.31;172668;28;1046;-68
2022/05/17 00:16:26;;;;;;;11.20;4.90;;;19.20;60.10;;;13.42;89.82;101791.84;172030;28;1140;-68
2022/05/17 00:16:32;;;;;;;12.07;5.20;;;19.20;60.10;;;13.41;90.11;101792.75;172436;28;1525;-68
2022/05/17 00:16:42;;;;;;;11.63;5.10;;;19.10;60.10;;;13.39;89.53;101785.78;173308;28;1002;-68
2022/05/17 00:16:49;;;;;;;10.33;4.90;;;19.20;60.10;;;13.39;90.12;101798.06;173346;28;971;-68
2022/05/17 00:16:55;;;;;;;10.45;4.85;;;19.20;60.10;;;13.38;89.84;101789.34;173319;28;903;-68
2022/05/17 00:17:02;;;;;;;8.93;4.40;;;19.10;60.10;;;13.37;89.81;101785.00;173373;28;967;-68
2022/05/17 00:17:09;;;;;;;9.08;4.42;;;19.20;60.10;;;13.37;90.03;101790.25;173388;28;1017;-68
2022/05/17 00:17:15;;;;;;;9.43;4.53;;;19.20;60.20;;;13.36;90.02;101788.56;173351;28;974;-68
2022/05/17 00:17:21;;;;;;;9.92;4.62;;;19.20;60.20;;;13.36;90.44;101791.19;173340;28;985;-68
2022/05/17 00:17:27;;;;;;;10.00;4.63;;;19.10;60.20;;;13.37;90.21;101789.38;173353;28;1073;-68
2022/05/17 00:17:33;;;;;;;10.00;4.80;;;19.10;60.10;;;13.36;90.20;101791.19;173345;28;939;-68
2022/05/17 00:17:39;;;;;;;10.70;4.90;;;19.10;60.20;;;13.35;90.31;101794.69;173420;28;1065;-67
2022/05/17 00:17:48;;;;;;;10.73;4.85;;;19.20;60.10;;;13.36;89.81;101792.94;173380;28;1235;-67
2022/05/17 00:17:56;;;;;;;10.97;4.77;;;19.10;60.20;;;13.35;90.52;101793.84;173387;28;1045;-67
2022/05/17 00:18:03;;;;;;;11.88;4.78;;;19.10;60.20;;;13.34;89.98;101793.00;173355;28;1483;-68
2022/05/17 00:18:11;;;;;;;12.50;4.70;;;19.10;60.20;;;13.34;90.16;101793.00;173452;28;938;-68
2022/05/17 00:18:19;;;;;;;12.00;4.82;;;19.10;60.10;;;13.34;90.14;101786.91;173403;28;1163;-68
2022/05/17 00:18:25;;;;;;;11.00;4.86;;;19.20;60.20;;;13.34;90.49;101789.53;173380;28;1058;-68
2022/05/17 00:18:33;;;;;;;10.32;4.80;;;19.10;60.20;;;13.33;90.13;101791.28;173379;28;887;-67
2022/05/17 00:18:39;;;;;;;9.10;4.82;;;19.10;60.20;;;13.33;90.47;101790.44;173396;28;998;-67
2022/05/17 00:18:46;;;;;;;11.02;4.90;;;19.10;60.20;;;13.33;90.29;101793.91;173340;28;1085;-68
2022/05/17 00:18:52;;;;;;;11.87;4.97;;;19.10;60.20;;;13.33;90.28;101788.66;173418;28;1089;-67
2022/05/17 00:18:58;;;;;;;12.30;5.13;;;19.10;60.20;;;13.33;90.50;101786.06;173320;28;1971;-68
2022/05/17 00:19:04;;;;;;;12.18;5.10;;;19.10;60.20;;;13.32;90.36;101783.47;173397;28;1045;-68
2022/05/17 00:19:16;;;;;;;11.85;5.10;;;19.10;60.30;;;13.34;90.50;101786.91;173424;28;934;-67
2022/05/17 00:19:22;;;;;;;10.61;4.90;;;19.10;60.20;;;13.33;90.33;101791.28;173849;28;1493;-68
2022/05/17 00:19:29;;;;;;;10.80;4.75;;;19.10;60.30;;;13.33;90.51;101785.19;173240;28;1515;-67
2022/05/17 00:19:35;;;;;;;11.08;4.74;;;19.10;60.30;;;13.33;90.48;101786.06;173331;28;1041;-68
2022/05/17 00:19:41;;;;;;;11.65;4.70;;;19.10;60.30;;;13.33;90.19;101782.56;173380;28;1213;-68
2022/05/17 00:19:47;;;;;;;11.18;4.65;;;19.10;60.30;;;13.32;90.58;101789.59;173379;28;860;-68
2022/05/17 00:19:53;;;;;;;10.35;4.60;;;19.10;60.30;;;13.33;90.73;101782.56;173329;28;1025;-68
2022/05/17 00:19:59;;;;;;;9.77;4.50;;;19.10;60.30;;;13.32;90.21;101789.59;173325;28;922;-68
2022/05/17 00:20:07;;;;;;;10.73;4.55;;;19.10;60.30;;;13.32;90.15;101789.59;173310;28;883;-68
2022/05/17 00:20:15;;;;;;;10.12;4.53;;;19.10;60.30;;;13.32;90.63;101780.88;173342;28;968;-67
2022/05/17 00:20:23;;;;;;;10.60;4.68;;;19.10;60.30;;;13.32;90.52;101784.34;173321;28;1552;-68
2022/05/17 00:20:29;;;;;;;10.83;4.72;;;19.10;60.30;;;13.32;90.09;101788.72;173319;28;1093;-67
2022/05/17 00:20:35;;;;;;;10.23;4.60;;;19.10;60.30;;;13.30;90.38;101780.91;173338;28;1140;-67
2022/05/17 00:20:42;;;;;;;9.80;4.55;;;19.10;60.30;;;13.31;90.37;101780.00;172601;28;733;-67
2022/05/17 00:20:48;;;;;;;9.58;4.58;;;19.10;60.30;;;13.30;90.41;101786.16;173230;28;1115;-67
2022/05/17 00:20:55;;;;;;;9.80;4.70;;;19.10;60.30;;;13.29;90.35;101787.09;173268;28;1045;-68
2022/05/17 00:21:01;;;;;;;9.54;4.78;;;19.10;60.40;;;13.27;90.60;101783.66;173349;28;1001;-67
2022/05/17 00:21:08;;;;;;;9.20;4.83;;;19.10;60.30;;;13.27;90.77;101791.50;173387;28;879;-68
2022/05/17 00:21:14;;;;;;;9.53;4.70;;;19.00;60.30;;;13.26;90.64;101784.56;173379;28;949;-68
2022/05/17 00:21:20;;;;;;;9.25;4.55;;;19.10;60.40;;;13.25;90.95;101782.88;173334;28;1004;-67
2022/05/17 00:21:26;;;;;;;8.88;4.57;;;19.10;60.40;;;13.25;91.16;101788.13;173563;28;1073;-67
2022/05/17 00:21:32;;;;;;;8.63;4.60;;;19.10;60.40;;;13.23;91.13;101782.94;174026;28;847;-68
2022/05/17 00:21:39;;;;;;;9.06;4.60;;;19.10;60.40;;;13.24;90.70;101786.41;173939;28;1407;-67
2022/05/17 00:21:47;;;;;;;8.93;4.70;;;19.10;60.40;;;13.25;90.94;101788.13;174015;28;1073;-67
2022/05/17 00:21:53;;;;;;;8.90;4.72;;;19.10;60.40;;;13.24;90.60;101783.81;174018;28;1002;-68
2022/05/17 00:21:59;;;;;;;9.47;4.70;;;19.00;60.40;;;13.25;91.05;101785.50;174041;28;1136;-68
2022/05/17 00:22:05;;;;;;;9.07;4.55;;;19.10;60.40;;;13.24;91.06;101786.41;174044;28;1049;-68
2022/05/17 00:22:11;;;;;;;8.95;4.68;;;19.10;60.40;;;13.24;90.89;101786.41;174096;28;914;-67
2022/05/17 00:22:17;;;;;;;9.67;4.70;;;19.10;60.40;;;13.23;91.10;101782.94;174067;28;1053;-68
2022/05/17 00:22:23;;;;;;;10.00;4.80;;;19.00;60.40;;;13.24;90.78;101783.81;174064;28;1061;-67
2022/05/17 00:22:29;;;;;;;9.85;4.70;;;19.00;60.40;;;13.24;90.74;101783.81;174022;28;1410;-68
2022/05/17 00:22:35;;;;;;;10.27;4.75;;;19.10;60.40;;;13.23;90.70;101785.56;173251;28;707;-68
2022/05/17 00:22:43;;;;;;;9.53;4.60;;;19.10;60.40;;;13.24;90.89;101786.41;173881;28;1132;-68
2022/05/17 00:22:49;;;;;;;9.88;4.50;;;19.00;60.40;;;13.23;91.31;101789.94;173314;28;1158;-68
2022/05/17 00:22:55;;;;;;;10.40;4.53;;;19.00;60.40;;;13.23;91.05;101785.56;173344;28;1124;-68
2022/05/17 00:23:02;;;;;;;11.37;4.67;;;19.00;60.50;;;13.23;90.78;101784.69;173314;28;989;-68
2022/05/17 00:23:15;;;;;;;12.76;4.80;;;19.00;60.50;;;13.22;90.91;101778.63;173340;28;906;-67
2022/05/17 00:23:21;;;;;;;12.94;5.00;;;19.10;60.50;;;13.23;91.12;101784.69;173316;28;1248;-67
2022/05/17 00:23:28;;;;;;;12.90;5.10;;;19.00;60.50;;;13.22;91.03;101781.22;173316;28;915;-67
2022/05/17 00:23:38;;;;;;;12.34;5.04;;;19.00;60.50;;;13.21;91.36;101782.13;173322;28;899;-67
2022/05/17 00:23:45;;;;;;;12.74;5.10;;;19.10;60.50;;;13.22;91.49;101788.22;173330;28;1229;-67
2022/05/17 00:23:51;;;;;;;12.58;5.10;;;19.10;60.50;;;13.21;91.24;101784.75;173328;28;1073;-67
2022/05/17 00:23:57;;;;;;;11.93;5.00;;;19.10;60.50;;;13.22;91.25;101788.22;173261;28;971;-68
2022/05/17 00:24:05;;;;;;;11.95;4.93;;;19.00;60.50;;;13.21;91.25;101781.28;173315;28;1140;-67
2022/05/17 00:24:14;;;;;;;10.56;4.73;;;19.00;60.50;;;13.22;91.28;101783.00;173368;28;1089;-68
2022/05/17 00:24:25;;;;;;;11.13;4.70;;;19.00;60.50;;;13.20;90.97;101782.19;173367;28;942;-67
2022/05/17 00:24:31;;;;;;;10.98;4.74;;;19.00;60.50;;;13.21;91.06;101781.28;173324;28;1249;-67
2022/05/17 00:24:37;;;;;;;12.90;4.90;;;19.00;60.50;;;13.20;91.19;101782.19;173388;28;907;-68
2022/05/17 00:24:43;;;;;;;12.80;4.97;;;19.00;60.50;;;13.20;90.86;101785.66;173445;28;954;-68
2022/05/17 00:24:49;;;;;;;13.07;5.00;;;19.00;60.50;;;13.20;91.11;101785.66;173309;28;1077;-68
2022/05/17 00:24:55;;;;;;;12.93;4.88;;;19.00;60.50;;;13.20;91.32;101785.66;173240;28;1348;-67
2022/05/17 00:25:03;;;;;;;12.45;4.78;;;19.00;60.50;;;13.20;91.12;101787.41;173305;28;1046;-68
2022/05/17 00:25:13;;;;;;;10.38;4.70;;;19.00;60.50;;;13.20;91.02;101787.41;173382;28;986;-68
2022/05/17 00:25:23;;;;;;;8.83;4.63;;;19.00;60.60;;;13.20;91.31;101784.81;173428;28;907;-67
2022/05/17 00:25:29;;;;;;;9.20;4.70;;;19.00;60.50;;;13.20;90.96;101790.03;173354;28;1141;-68
2022/05/17 00:25:36;;;;;;;10.35;4.90;;;19.00;60.60;;;13.19;91.16;101786.59;173405;28;1136;-68
2022/05/17 00:25:47;;;;;;;11.04;4.90;;;19.00;60.60;;;13.21;90.82;101786.53;173437;28;1093;-68
2022/05/17 00:25:53;;;;;;;10.80;4.76;;;19.00;60.60;;;13.20;91.06;101784.81;173338;28;1143;-68
2022/05/17 00:25:59;;;;;;;9.65;4.70;;;19.00;60.60;;;13.20;91.27;101784.81;173364;28;879;-68
2022/05/17 00:26:07;;;;;;;9.05;4.68;;;19.00;60.60;;;13.19;91.22;101783.97;173358;28;978;-68
2022/05/17 00:26:13;;;;;;;9.20;4.70;;;19.00;60.60;;;13.20;91.21;101790.91;173455;28;950;-68
2022/05/17 00:26:19;;;;;;;10.80;4.82;;;19.00;60.50;;;13.20;90.88;101784.81;173402;28;919;-68
2022/05/17 00:26:25;;;;;;;11.53;4.90;;;19.00;60.60;;;13.19;91.35;101783.09;173416;28;966;-68
2022/05/17 00:26:33;;;;;;;12.37;4.87;;;19.00;60.50;;;13.19;91.44;101783.97;173383;28;950;-67
2022/05/17 00:26:40;;;;;;;11.35;4.70;;;19.00;60.60;;;13.19;91.11;101783.09;173415;28;970;-67
2022/05/17 00:26:46;;;;;;;10.85;4.55;;;19.00;60.50;;;13.19;90.99;101783.97;173370;28;1081;-68
2022/05/17 00:26:52;;;;;;;9.65;4.47;;;18.90;60.60;;;13.20;91.30;101784.81;173374;28;1077;-67
2022/05/17 00:26:59;;;;;;;10.87;4.70;;;19.00;60.60;;;13.20;91.11;101790.91;173407;28;961;-68
2022/05/17 00:27:06;;;;;;;11.25;4.70;;;19.00;60.60;;;13.19;90.96;101783.97;173314;28;1098;-68
2022/05/17 00:27:11;;;;;;;12.17;4.80;;;19.00;60.60;;;13.19;91.52;101783.97;173273;28;1498;-69
2022/05/17 00:27:17;;;;;;;11.93;4.82;;;19.00;60.60;;;13.20;91.34;101784.81;173322;28;1160;-67
2022/05/17 00:27:23;;;;;;;13.38;4.97;;;19.00;60.60;;;13.19;91.18;101781.34;173321;28;844;-67
2022/05/17 00:27:29;;;;;;;12.80;4.80;;;19.00;60.60;;;13.20;91.12;101785.66;173340;28;1014;-67
2022/05/17 00:27:34;;;;;;;11.77;4.80;;;19.00;60.60;;;13.21;90.98;101783.91;173341;28;828;-67
2022/05/17 00:27:40;;;;;;;10.80;4.65;;;19.00;60.70;;;13.21;91.25;101784.75;173378;28;994;-67
2022/05/17 00:27:46;;;;;;;11.18;4.80;;;19.00;60.60;;;13.21;91.38;101783.91;173228;28;819;-67
2022/05/17 00:27:52;;;;;;;10.50;4.70;;;19.00;60.70;;;13.22;91.01;101788.22;173308;28;1116;-67